Time;durP1;ratioP1;P1;durP2;ratioP2;P2;SDS_P1;SDS_P2;PMS_P1;PMS_P2;Temp;Humidity;BMP_temperature;BMP_pressure;BME280_temperature;BME280_humidity;BME280_pressure;Samples;Min_cycle;Max_cycle;Signal;HPM_P1;HPM_P2
2023/04/07 00:00:42;;;;;;;17.35;9.07;;;;;;;8.95;81.92;100014.88;5016273;28;20104;-88
2023/04/07 00:03:10;;;;;;;16.35;9.90;;;;;;;8.98;81.36;100008.50;4981254;28;20038;-88
2023/04/07 00:05:37;;;;;;;19.90;9.65;;;;;;;8.95;81.77;100001.63;5019425;28;20038;-88
2023/04/07 00:08:03;;;;;;;21.45;9.38;;;;;;;8.95;81.85;100001.63;4997460;28;20132;-88
2023/04/07 00:10:30;;;;;;;18.35;8.50;;;;;;;8.96;81.71;100000.69;4984166;28;20046;-88
2023/04/07 00:12:57;;;;;;;20.10;8.65;;;;;;;8.98;81.74;100008.50;4994757;28;20045;-88
2023/04/07 00:15:24;;;;;;;13.80;8.48;;;;;;;8.96;82.03;99997.22;5014847;28;20041;-88
2023/04/07 00:17:51;;;;;;;17.13;9.25;;;;;;;8.96;82.25;99995.41;5006997;28;20562;-88
2023/04/07 00:20:18;;;;;;;18.00;8.60;;;;;;;8.96;81.79;100005.16;5014403;28;20038;-87
2023/04/07 00:22:44;;;;;;;15.15;8.50;;;;;;;8.96;81.97;99992.75;4996338;28;20636;-88
2023/04/07 00:25:11;;;;;;;19.77;8.80;;;;;;;8.96;81.99;99989.25;5029905;28;20559;-87
2023/04/07 00:27:38;;;;;;;19.88;10.45;;;;;;;9.00;81.55;99994.16;4995518;28;20053;-87
2023/04/07 00:30:05;;;;;;;17.10;9.63;;;;;;;8.98;81.90;99990.81;4990662;28;20041;-88
2023/04/07 00:32:33;;;;;;;21.25;9.52;;;;;;;8.90;82.42;99980.84;5012421;28;20405;-87
2023/04/07 00:35:01;;;;;;;23.45;10.18;;;;;;;8.91;82.32;99976.38;4975437;28;20617;-87
2023/04/07 00:37:28;;;;;;;18.60;9.07;;;;;;;8.89;82.59;99973.84;5026149;28;20049;-88
2023/04/07 00:39:56;;;;;;;19.40;9.07;;;;;;;8.88;82.22;99972.16;5027926;28;20078;-88
2023/04/07 00:42:24;;;;;;;16.50;9.48;;;;;;;8.90;82.38;99966.72;5005118;28;20397;-88
2023/04/07 00:44:50;;;;;;;23.45;10.25;;;;;;;8.89;81.91;99967.72;4993728;28;20061;-88
2023/04/07 00:47:17;;;;;;;20.38;9.77;;;;;;;8.90;81.82;99962.31;5030586;28;20045;-87
2023/04/07 00:49:44;;;;;;;18.40;10.23;;;;;;;8.91;81.68;99958.69;4997284;28;20622;-88
2023/04/07 00:52:11;;;;;;;20.05;10.02;;;;;;;8.90;81.85;99961.44;4997305;28;20047;-88
2023/04/07 00:54:38;;;;;;;15.90;9.60;;;;;;;8.86;82.30;99952.91;5027605;28;20507;-87
2023/04/07 00:57:05;;;;;;;16.42;9.48;;;;;;;8.84;82.46;99949.53;5026773;28;20401;-87
2023/04/07 00:59:33;;;;;;;14.57;8.77;;;;;;;8.80;83.03;99948.09;4995269;28;20049;-87
2023/04/07 01:02:17;;;;;;;14.88;9.02;;;;;;;8.73;85.42;99948.69;5000610;28;20050;-87
2023/04/07 01:04:50;;;;;;;17.75;9.57;;;;;;;8.78;84.48;99946.53;5031450;28;20493;-87
2023/04/07 01:07:22;;;;;;;17.08;9.20;;;;;;;8.74;85.02;99942.44;4965242;28;20064;-87
2023/04/07 01:10:10;;;;;;;17.20;8.87;;;;;;;8.67;86.38;99934.13;5003618;28;20046;-87
2023/04/07 01:13:02;;;;;;;15.68;9.18;;;;;;;8.71;86.53;99934.75;5000336;28;20054;-86
2023/04/07 01:15:30;;;;;;;15.27;9.00;;;;;;;8.77;84.13;99921.84;5005709;28;20049;-88
2023/04/07 01:18:21;;;;;;;15.27;9.48;;;;;;;8.77;85.85;99916.56;5021252;28;20038;-87
2023/04/07 01:20:49;;;;;;;16.15;8.93;;;;;;;8.86;83.93;99915.84;4964072;28;20079;-87
2023/04/07 01:23:22;;;;;;;16.95;9.68;;;;;;;8.84;84.76;99916.91;5011308;28;20073;-87
2023/04/07 01:25:53;;;;;;;20.15;10.18;;;;;;;8.85;83.79;99908.00;4982187;28;20150;-87
2023/04/07 01:29:10;;;;;;;17.67;9.60;;;;;;;8.82;85.40;99916.19;5012310;28;20041;-87
2023/04/07 01:31:38;;;;;;;19.65;10.30;;;;;;;8.89;83.38;99922.69;4996973;28;20100;-88
2023/04/07 01:34:07;;;;;;;20.95;10.55;;;;;;;8.87;83.49;99912.19;4994440;28;20161;-88
2023/04/07 01:36:34;;;;;;;17.38;9.85;;;;;;;8.91;83.23;99912.81;5007564;28;20038;-88
2023/04/07 01:39:01;;;;;;;17.45;10.05;;;;;;;8.94;82.71;99901.97;5014480;28;20065;-85
2023/04/07 01:41:29;;;;;;;18.38;10.30;;;;;;;8.94;83.14;99904.63;5030640;28;20049;-87
2023/04/07 01:43:55;;;;;;;16.13;9.00;;;;;;;8.95;82.76;99906.28;5015508;28;20053;-88
2023/04/07 01:46:23;;;;;;;14.77;9.30;;;;;;;8.97;82.24;99906.19;5015594;28;20053;-87
2023/04/07 01:48:50;;;;;;;20.65;11.07;;;;;;;8.93;83.01;99905.59;5014676;28;20111;-88
2023/04/07 01:51:19;;;;;;;15.27;8.90;;;;;;;8.99;82.30;99904.25;4987806;28;20049;-87
2023/04/07 01:53:46;;;;;;;20.90;9.95;;;;;;;8.95;82.56;99897.50;5005098;28;20119;-87
2023/04/07 01:56:14;;;;;;;16.45;9.70;;;;;;;8.94;83.04;99901.97;5024308;28;20504;-88
2023/04/07 01:58:43;;;;;;;16.60;9.63;;;;;;;8.96;82.65;99897.41;4983166;28;20125;-88
2023/04/07 02:01:15;;;;;;;16.52;9.48;;;;;;;8.88;83.12;99903.31;4997940;28;20129;-87
2023/04/07 02:03:47;;;;;;;17.80;9.60;;;;;;;8.87;83.52;99896.31;4989208;28;20507;-87
2023/04/07 02:06:21;;;;;;;18.30;9.07;;;;;;;8.88;83.87;99903.31;4981280;28;20133;-87
2023/04/07 02:08:51;;;;;;;15.32;9.18;;;;;;;8.84;83.94;99901.88;4980792;28;20054;-86
2023/04/07 02:11:20;;;;;;;17.08;10.07;;;;;;;8.84;83.75;99891.28;4992432;28;20041;-87
2023/04/07 02:13:52;;;;;;;18.40;10.15;;;;;;;8.87;83.46;99888.38;4980419;28;20071;-88
2023/04/07 02:16:20;;;;;;;17.38;9.57;;;;;;;8.88;83.52;99891.88;5013292;28;20648;-87
2023/04/07 02:18:47;;;;;;;17.25;10.18;;;;;;;8.88;83.27;99886.59;5004658;28;20037;-88
2023/04/07 02:21:15;;;;;;;16.92;10.70;;;;;;;8.86;83.59;99883.22;4984404;28;20063;-88
2023/04/07 02:23:44;;;;;;;21.02;11.43;;;;;;;8.87;83.33;99880.44;5008273;28;20049;-87
2023/04/07 02:26:12;;;;;;;19.20;10.38;;;;;;;8.85;83.75;99881.53;5008573;28;20050;-87
2023/04/07 02:28:38;;;;;;;20.55;10.93;;;;;;;8.90;83.51;99877.56;4999643;28;20050;-87
2023/04/07 02:31:05;;;;;;;18.60;9.93;;;;;;;8.87;83.80;99872.47;4970060;28;20053;-87
2023/04/07 02:33:32;;;;;;;17.77;9.25;;;;;;;8.85;84.01;99876.22;4985146;28;20057;-86
2023/04/07 02:35:58;;;;;;;16.70;8.55;;;;;;;8.86;83.72;99867.34;5015734;28;20064;-87
2023/04/07 02:38:27;;;;;;;19.48;10.32;;;;;;;8.87;83.53;99875.13;5018364;28;20054;-87
2023/04/07 02:40:55;;;;;;;17.58;9.77;;;;;;;8.84;84.08;99866.59;5008631;28;20041;-87
2023/04/07 02:43:24;;;;;;;18.92;9.85;;;;;;;8.87;83.90;99867.19;5021918;28;20063;-87
2023/04/07 02:45:51;;;;;;;19.27;10.30;;;;;;;8.89;83.63;99864.44;5009695;28;20068;-87
2023/04/07 02:48:17;;;;;;;18.15;10.65;;;;;;;8.88;84.00;99865.41;5012451;28;20053;-88
2023/04/07 02:50:44;;;;;;;20.67;11.55;;;;;;;8.81;84.56;99864.22;5008348;28;20459;-87
2023/04/07 02:53:11;;;;;;;21.83;11.50;;;;;;;8.79;84.55;99861.69;4986828;28;20046;-87
2023/04/07 02:55:38;;;;;;;21.73;11.07;;;;;;;8.80;84.71;99860.72;4969767;28;20485;-87
2023/04/07 02:58:05;;;;;;;24.50;11.70;;;;;;;8.81;84.60;99858.91;5012459;28;20046;-87
2023/04/07 03:00:37;;;;;;;21.83;11.30;;;;;;;8.87;84.23;99855.75;5010548;28;20061;-87
2023/04/07 03:03:09;;;;;;;20.10;11.68;;;;;;;8.83;84.33;99851.69;4997454;28;20053;-88
2023/04/07 03:05:38;;;;;;;21.20;11.15;;;;;;;8.77;84.76;99847.72;5016333;28;20559;-85
2023/04/07 03:08:07;;;;;;;21.15;10.07;;;;;;;8.76;84.91;99847.84;4997288;28;20084;-88
2023/04/07 03:10:35;;;;;;;22.70;10.82;;;;;;;8.73;85.32;99848.94;4968495;28;20045;-88
2023/04/07 03:13:02;;;;;;;21.35;10.38;;;;;;;8.74;84.93;99852.44;5007720;28;20052;-87
2023/04/07 03:15:29;;;;;;;21.15;11.52;;;;;;;8.76;84.64;99848.69;5002442;28;20515;-88
2023/04/07 03:17:56;;;;;;;21.50;10.15;;;;;;;8.78;84.96;99851.22;5009184;28;20053;-87
2023/04/07 03:20:22;;;;;;;21.33;11.30;;;;;;;8.73;85.14;99842.78;5002455;28;22279;-87
2023/04/07 03:22:49;;;;;;;20.55;10.60;;;;;;;8.68;85.63;99833.44;5010328;28;20467;-88
2023/04/07 03:25:21;;;;;;;20.75;10.57;;;;;;;8.62;86.19;99838.38;4979489;28;20045;-88
2023/04/07 03:27:50;;;;;;;23.65;11.10;;;;;;;8.71;85.71;99842.94;4987794;28;20507;-88
2023/04/07 03:30:17;;;;;;;25.42;12.30;;;;;;;8.66;85.64;99838.00;4988288;28;20621;-88
2023/04/07 03:32:45;;;;;;;26.83;11.65;;;;;;;8.68;85.76;99841.38;5001795;28;20054;-87
2023/04/07 03:35:12;;;;;;;22.77;11.98;;;;;;;8.64;85.90;99831.97;4995467;28;20046;-88
2023/04/07 03:37:39;;;;;;;28.05;12.07;;;;;;;8.65;85.60;99846.06;5010661;28;20053;-87
2023/04/07 03:40:12;;;;;;;24.45;11.63;;;;;;;8.59;86.13;99835.97;4995278;28;20050;-87
2023/04/07 03:42:39;;;;;;;26.50;12.25;;;;;;;8.61;85.97;99831.41;5011048;28;20050;-88
2023/04/07 03:45:07;;;;;;;26.42;12.27;;;;;;;8.58;86.64;99829.84;4982268;28;20054;-87
2023/04/07 03:47:38;;;;;;;26.52;11.80;;;;;;;8.59;86.42;99828.88;5007143;28;20046;-87
2023/04/07 03:50:05;;;;;;;28.13;12.00;;;;;;;8.59;86.37;99828.03;5011337;28;20046;-87
2023/04/07 03:52:39;;;;;;;24.85;11.43;;;;;;;8.59;86.67;99825.38;5002392;28;20046;-87
2023/04/07 03:55:17;;;;;;;27.02;12.80;;;;;;;8.57;86.74;99828.13;4998365;28;20046;-87
2023/04/07 03:57:44;;;;;;;25.33;12.02;;;;;;;8.58;86.67;99827.19;5026829;28;20049;-87
2023/04/07 04:00:12;;;;;;;31.20;13.70;;;;;;;8.57;87.05;99832.59;4995713;28;20046;-87
2023/04/07 04:02:59;;;;;;;27.00;12.15;;;;;;;8.55;86.77;99826.56;4994032;28;20776;-88
2023/04/07 04:05:27;;;;;;;26.58;12.52;;;;;;;8.54;86.90;99824.91;4996615;28;20053;-88
2023/04/07 04:07:54;;;;;;;36.10;14.75;;;;;;;8.57;87.08;99824.66;4996377;28;20045;-88
2023/04/07 04:10:22;;;;;;;29.55;12.90;;;;;;;8.55;86.97;99827.44;5000885;28;20052;-87
2023/04/07 04:12:51;;;;;;;29.50;13.35;;;;;;;8.56;86.95;99828.28;5002872;28;20053;-87
2023/04/07 04:15:18;;;;;;;30.02;12.70;;;;;;;8.56;86.91;99828.28;4994517;28;20046;-88
2023/04/07 04:17:46;;;;;;;32.00;13.48;;;;;;;8.55;87.43;99826.56;5002818;28;20057;-87
2023/04/07 04:20:13;;;;;;;31.48;14.07;;;;;;;8.53;87.40;99818.78;5023487;28;20056;-86
2023/04/07 04:22:42;;;;;;;30.33;12.93;;;;;;;8.53;87.41;99829.38;5007420;28;20046;-88
2023/04/07 04:25:10;;;;;;;30.58;13.50;;;;;;;8.57;87.27;99829.94;5005714;28;20045;-88
2023/04/07 04:27:39;;;;;;;35.08;13.93;;;;;;;8.54;87.60;99831.03;4986446;28;20052;-87
2023/04/07 04:30:14;;;;;;;36.38;14.32;;;;;;;8.55;87.32;99829.22;4995300;28;20129;-85
2023/04/07 04:32:49;;;;;;;32.22;14.20;;;;;;;8.53;87.87;99833.81;4999674;28;20053;-88
2023/04/07 04:35:21;;;;;;;35.00;13.75;;;;;;;8.54;87.54;99833.69;4989973;28;20060;-88
2023/04/07 04:38:02;;;;;;;31.73;12.90;;;;;;;8.50;87.65;99841.97;5020790;28;20049;-88
2023/04/07 04:40:31;;;;;;;37.72;14.73;;;;;;;8.53;87.65;99833.81;4987547;28;20064;-87
2023/04/07 04:42:59;;;;;;;34.22;14.38;;;;;;;8.53;87.67;99839.13;5014254;28;20050;-88
2023/04/07 04:45:27;;;;;;;35.53;14.85;;;;;;;8.52;87.50;99832.97;4985413;28;20041;-88
2023/04/07 04:47:54;;;;;;;34.38;15.48;;;;;;;8.51;87.85;99833.94;5019617;28;20049;-87
2023/04/07 04:50:21;;;;;;;34.40;15.68;;;;;;;8.50;88.25;99837.56;4966883;28;20041;-87
2023/04/07 04:52:49;;;;;;;39.17;14.82;;;;;;;8.48;87.97;99829.72;5015129;28;20132;-87
2023/04/07 04:55:20;;;;;;;39.25;15.27;;;;;;;8.49;88.08;99833.22;4999736;28;20056;-87
2023/04/07 04:57:47;;;;;;;35.92;14.32;;;;;;;8.48;87.87;99819.16;5014029;28;20108;-88
2023/04/07 05:00:20;;;;;;;36.20;15.02;;;;;;;8.49;87.85;99825.28;5006578;28;20041;-87
2023/04/07 05:02:51;;;;;;;34.85;14.52;;;;;;;8.50;88.07;99828.75;4982910;28;20095;-86
2023/04/07 05:05:18;;;;;;;34.67;14.38;;;;;;;8.48;88.10;99829.72;5001898;28;20038;-87
2023/04/07 05:07:45;;;;;;;33.63;15.07;;;;;;;8.47;87.97;99822.78;5005971;28;20730;-87
2023/04/07 05:10:13;;;;;;;35.17;15.18;;;;;;;8.47;88.10;99822.78;5029876;28;20477;-86
2023/04/07 05:12:46;;;;;;;35.78;14.88;;;;;;;8.45;88.11;99829.97;5002081;28;20493;-87
2023/04/07 05:15:14;;;;;;;33.25;14.32;;;;;;;8.50;87.88;99836.69;5020306;28;20103;-87
2023/04/07 05:17:49;;;;;;;36.88;15.55;;;;;;;8.51;88.06;99841.03;5005629;28;20049;-88
2023/04/07 05:20:21;;;;;;;38.60;15.30;;;;;;;8.50;88.11;99841.97;4974371;28;20096;-88
2023/04/07 05:22:48;;;;;;;42.97;15.95;;;;;;;8.49;88.17;99846.44;5004069;28;20072;-87
2023/04/07 05:25:17;;;;;;;39.13;14.18;;;;;;;8.44;88.48;99833.56;4989229;28;21999;-88
2023/04/07 05:27:46;;;;;;;33.83;13.95;;;;;;;8.46;88.61;99836.09;4996927;28;20080;-85
2023/04/07 05:30:15;;;;;;;36.88;15.13;;;;;;;8.47;88.48;99832.47;4998137;28;20100;-88
2023/04/07 05:32:42;;;;;;;40.38;15.82;;;;;;;8.45;88.59;99827.34;4997883;28;20129;-87
2023/04/07 05:35:23;;;;;;;37.53;14.63;;;;;;;8.48;88.64;99826.25;4984773;28;20054;-88
2023/04/07 05:37:54;;;;;;;41.80;15.23;;;;;;;8.48;88.34;99832.38;5020483;28;20057;-88
2023/04/07 05:40:21;;;;;;;39.05;15.32;;;;;;;8.46;88.19;99828.16;4986706;28;20751;-87
2023/04/07 05:42:49;;;;;;;38.40;14.95;;;;;;;8.46;88.15;99833.47;5005826;28;20053;-88
2023/04/07 05:45:16;;;;;;;35.28;14.48;;;;;;;8.46;88.46;99833.47;4967184;28;20065;-87
2023/04/07 05:47:48;;;;;;;37.97;14.10;;;;;;;8.45;88.80;99827.34;4979849;28;20397;-87
2023/04/07 05:50:21;;;;;;;34.97;14.77;;;;;;;8.46;88.90;99834.28;5010645;28;20728;-87
2023/04/07 05:52:49;;;;;;;39.88;14.75;;;;;;;8.47;88.74;99830.72;5011204;28;20050;-87
2023/04/07 05:55:20;;;;;;;36.85;15.45;;;;;;;8.47;88.85;99830.72;5013260;28;20038;-87
2023/04/07 05:57:48;;;;;;;41.08;16.65;;;;;;;8.46;88.71;99829.00;4982912;28;20045;-87
2023/04/07 06:00:19;;;;;;;38.72;15.25;;;;;;;8.50;88.78;99828.75;5003389;28;20041;-87
2023/04/07 06:02:55;;;;;;;39.58;15.90;;;;;;;8.48;89.24;99829.72;4988068;28;20049;-87
2023/04/07 06:05:24;;;;;;;35.53;15.43;;;;;;;8.52;88.80;99832.97;5014795;28;20520;-85
2023/04/07 06:07:54;;;;;;;42.50;16.30;;;;;;;8.56;88.85;99830.94;5002269;28;20137;-87
2023/04/07 06:10:25;;;;;;;43.50;15.95;;;;;;;8.55;89.39;99837.16;5014568;28;20058;-85
2023/04/07 06:12:52;;;;;;;41.97;16.55;;;;;;;8.56;89.08;99836.22;4996583;28;20041;-88
2023/04/07 06:15:19;;;;;;;38.42;15.70;;;;;;;8.63;88.48;99819.72;5008222;28;20046;-88
2023/04/07 06:17:45;;;;;;;49.53;16.73;;;;;;;8.65;87.94;99824.88;5003038;28;20052;-88
2023/04/07 06:20:12;;;;;;;44.70;16.50;;;;;;;8.68;87.31;99836.06;4999336;28;20164;-88
2023/04/07 06:22:39;;;;;;;44.08;17.67;;;;;;;8.67;86.98;99829.09;5000401;28;20910;-87
2023/04/07 06:25:06;;;;;;;39.65;16.08;;;;;;;8.69;87.20;99829.81;4979615;28;20129;-88
2023/04/07 06:27:34;;;;;;;39.67;15.60;;;;;;;8.72;86.65;99836.66;4971622;28;20041;-88
2023/04/07 06:30:00;;;;;;;41.28;16.08;;;;;;;8.77;86.57;99831.00;5010498;28;20092;-87
2023/04/07 06:32:28;;;;;;;47.35;16.88;;;;;;;8.74;86.96;99834.72;5010092;28;20057;-85
2023/04/07 06:34:56;;;;;;;43.35;16.52;;;;;;;8.75;87.14;99831.13;5003148;28;20069;-89
2023/04/07 06:37:24;;;;;;;49.83;17.55;;;;;;;8.78;87.25;99825.59;5004123;28;20050;-87
2023/04/07 06:39:51;;;;;;;43.75;17.05;;;;;;;8.95;87.13;99828.66;5013146;28;20061;-85
2023/04/07 06:42:17;;;;;;;47.50;17.77;;;;;;;8.94;86.62;99824.34;4992587;28;20806;-88
2023/04/07 06:44:53;;;;;;;40.53;14.18;;;;;;;9.09;86.09;99821.25;4993570;28;20045;-87
2023/04/07 06:47:20;;;;;;;36.55;15.23;;;;;;;9.22;85.52;99821.09;5031060;28;20053;-88
2023/04/07 06:49:47;;;;;;;41.55;16.92;;;;;;;9.34;85.21;99822.72;5004501;28;20085;-88
2023/04/07 06:52:14;;;;;;;36.28;15.40;;;;;;;9.46;84.60;99830.59;5002924;28;20972;-86
2023/04/07 06:54:41;;;;;;;35.15;14.15;;;;;;;9.50;84.18;99826.72;5028936;28;20248;-87
2023/04/07 06:57:10;;;;;;;32.80;12.68;;;;;;;9.49;83.93;99823.25;5011131;28;20482;-86
2023/04/07 06:59:38;;;;;;;35.33;15.10;;;;;;;9.43;83.46;99820.25;5014827;28;20041;-88
2023/04/07 07:02:06;;;;;;;44.88;14.48;;;;;;;9.45;83.24;99827.13;5000638;28;20054;-88
2023/04/07 07:04:33;;;;;;;36.75;15.10;;;;;;;9.48;82.35;99826.03;5009958;28;20054;-87
2023/04/07 07:07:01;;;;;;;36.85;14.07;;;;;;;9.48;82.88;99831.31;5011978;28;20081;-88
2023/04/07 07:09:27;;;;;;;31.25;13.55;;;;;;;9.45;82.51;99827.13;4980836;28;20766;-87
2023/04/07 07:11:54;;;;;;;33.10;14.60;;;;;;;9.39;82.53;99825.00;4993332;28;20049;-88
2023/04/07 07:14:21;;;;;;;39.60;15.20;;;;;;;9.38;82.70;99825.94;5026301;28;20069;-88
2023/04/07 07:16:48;;;;;;;33.97;13.50;;;;;;;9.40;82.89;99825.81;5011727;28;20053;-87
2023/04/07 07:19:15;;;;;;;43.95;15.05;;;;;;;9.39;82.77;99818.81;5025579;28;20156;-88
2023/04/07 07:21:41;;;;;;;37.28;14.43;;;;;;;9.41;82.43;99830.97;5013759;28;20049;-88
2023/04/07 07:24:08;;;;;;;36.75;14.50;;;;;;;9.46;82.73;99828.78;5025684;28;20038;-88
2023/04/07 07:26:35;;;;;;;36.53;14.98;;;;;;;9.48;82.25;99826.03;5009020;28;20053;-87
2023/04/07 07:29:02;;;;;;;35.20;13.30;;;;;;;9.47;82.17;99827.84;4981837;28;20044;-87
2023/04/07 07:31:30;;;;;;;36.25;13.60;;;;;;;9.51;82.08;99829.25;5023726;28;20141;-88
2023/04/07 07:33:57;;;;;;;36.50;12.98;;;;;;;9.59;82.09;99831.25;4995510;28;20069;-83
2023/04/07 07:36:23;;;;;;;36.00;13.95;;;;;;;9.64;82.06;99829.06;5001633;28;20084;-83
2023/04/07 07:38:50;;;;;;;36.72;14.55;;;;;;;9.65;81.50;99827.25;5027789;28;20514;-83
2023/04/07 07:41:17;;;;;;;43.83;15.13;;;;;;;9.68;81.61;99827.81;5027312;28;20099;-83
2023/04/07 07:43:44;;;;;;;41.88;14.52;;;;;;;9.68;81.39;99830.47;5023605;28;20471;-83
2023/04/07 07:46:11;;;;;;;36.90;13.38;;;;;;;9.67;81.31;99836.75;5020231;28;20509;-83
2023/04/07 07:48:38;;;;;;;32.75;13.90;;;;;;;9.69;81.49;99829.53;5026842;28;20133;-84
2023/04/07 07:51:05;;;;;;;33.15;13.57;;;;;;;9.67;80.66;99839.41;4995550;28;20042;-84
2023/04/07 07:53:32;;;;;;;34.40;14.52;;;;;;;9.73;80.36;99830.09;4969346;28;20523;-84
2023/04/07 07:55:59;;;;;;;33.92;14.15;;;;;;;9.78;81.11;99831.38;5012252;28;20446;-84
2023/04/07 07:58:26;;;;;;;36.10;15.02;;;;;;;9.81;80.87;99829.44;5001421;28;20083;-84
2023/04/07 08:00:52;;;;;;;35.20;14.40;;;;;;;9.84;80.71;99832.66;5027871;28;20053;-84
2023/04/07 08:03:21;;;;;;;39.53;16.65;;;;;;;9.90;80.49;99839.28;5016084;28;20043;-84
2023/04/07 08:05:48;;;;;;;38.08;14.02;;;;;;;9.90;80.76;99836.63;5006508;28;20952;-83
2023/04/07 08:08:15;;;;;;;40.67;15.02;;;;;;;9.90;80.82;99836.63;5030745;28;20074;-83
2023/04/07 08:10:43;;;;;;;36.83;14.75;;;;;;;9.90;80.81;99841.94;5016074;28;20417;-83
2023/04/07 08:13:09;;;;;;;38.50;15.00;;;;;;;9.90;80.50;99840.09;5017819;28;20400;-83
2023/04/07 08:15:38;;;;;;;37.53;14.57;;;;;;;9.90;79.88;99839.28;5018237;28;20064;-83
2023/04/07 08:18:05;;;;;;;36.95;14.88;;;;;;;9.88;79.61;99849.16;5024189;28;20046;-83
2023/04/07 08:20:32;;;;;;;40.10;15.20;;;;;;;9.87;79.81;99840.38;5019808;28;20096;-84
2023/04/07 08:23:01;;;;;;;36.55;13.50;;;;;;;9.88;79.38;99844.69;4995658;28;20070;-84
2023/04/07 08:25:28;;;;;;;40.63;15.85;;;;;;;9.86;79.89;99851.94;5014632;28;20045;-84
2023/04/07 08:27:54;;;;;;;36.20;15.68;;;;;;;9.80;79.63;99851.63;5029204;28;20037;-84
2023/04/07 08:30:21;;;;;;;39.25;14.80;;;;;;;9.79;79.18;99864.03;5010624;28;20046;-85
2023/04/07 08:32:48;;;;;;;38.13;16.30;;;;;;;9.80;79.37;99855.13;4994373;28;20682;-84
2023/04/07 08:35:15;;;;;;;45.17;15.93;;;;;;;9.83;79.61;99864.63;5029917;28;21116;-84
2023/04/07 08:37:43;;;;;;;33.25;13.40;;;;;;;9.86;79.30;99854.59;5017151;28;20069;-83
2023/04/07 08:40:10;;;;;;;40.85;15.55;;;;;;;9.88;78.84;99857.97;4998140;28;20061;-84
2023/04/07 08:42:40;;;;;;;36.70;15.48;;;;;;;9.91;78.84;99856.84;4982573;28;20044;-84
2023/04/07 08:45:08;;;;;;;35.22;14.32;;;;;;;9.95;78.60;99859.13;4980788;28;20056;-84
2023/04/07 08:47:36;;;;;;;36.88;15.40;;;;;;;9.99;78.72;99862.34;4983730;28;20057;-85
2023/04/07 08:50:06;;;;;;;35.65;13.63;;;;;;;10.05;79.34;99868.94;5013438;28;20489;-85
2023/04/07 08:52:41;;;;;;;36.03;15.13;;;;;;;10.11;79.66;99871.06;5000199;28;20042;-84
2023/04/07 08:55:08;;;;;;;41.15;14.70;;;;;;;10.14;79.47;99866.31;5000792;28;20068;-84
2023/04/07 08:57:35;;;;;;;37.85;15.77;;;;;;;10.16;78.75;99864.38;5002175;28;20067;-85
2023/04/07 09:00:04;;;;;;;39.53;15.15;;;;;;;10.13;78.16;99864.66;5014876;28;20042;-85
2023/04/07 09:02:33;;;;;;;45.55;17.08;;;;;;;10.12;78.06;99872.75;5023975;28;20500;-86
2023/04/07 09:05:01;;;;;;;38.50;14.90;;;;;;;10.14;77.87;99865.50;4995082;28;20508;-84
2023/04/07 09:07:28;;;;;;;34.65;16.10;;;;;;;10.15;77.60;99873.34;5011128;28;20100;-84
2023/04/07 09:09:55;;;;;;;37.05;14.98;;;;;;;10.16;77.27;99872.34;5010523;28;20053;-84
2023/04/07 09:12:22;;;;;;;36.88;14.68;;;;;;;10.14;76.60;99876.09;5012449;28;20046;-84
2023/04/07 09:14:49;;;;;;;36.58;14.18;;;;;;;10.19;76.76;99884.50;5009915;28;20136;-84
2023/04/07 09:17:16;;;;;;;38.28;13.77;;;;;;;10.18;76.58;99875.72;5017330;28;20053;-84
2023/04/07 09:19:43;;;;;;;36.78;15.43;;;;;;;10.19;76.02;99876.56;5016011;28;20409;-84
2023/04/07 09:22:13;;;;;;;34.67;14.48;;;;;;;10.20;75.80;99878.22;5019067;28;20049;-84
2023/04/07 09:24:41;;;;;;;31.17;14.25;;;;;;;10.24;75.93;99882.31;5025073;28;20042;-84
2023/04/07 09:27:11;;;;;;;35.28;14.00;;;;;;;10.21;75.63;99880.75;5005570;28;20049;-83
2023/04/07 09:29:41;;;;;;;;;;;;;;;10.12;76.10;99883.34;5016852;28;20100;-84
2023/04/07 09:32:08;;;;;;;36.85;15.13;;;;;;;10.19;76.45;99881.84;4983296;28;20040;-84
2023/04/07 09:34:37;;;;;;;36.80;13.55;;;;;;;10.24;76.55;99878.81;4981872;28;20069;-84
2023/04/07 09:37:08;;;;;;;36.40;14.50;;;;;;;10.24;75.82;99879.66;4983231;28;20044;-85
2023/04/07 09:39:49;;;;;;;40.35;13.82;;;;;;;10.15;74.57;99889.25;5022924;28;20053;-85
2023/04/07 09:42:16;;;;;;;38.17;14.07;;;;;;;10.21;75.34;99885.22;5012591;28;20515;-85
2023/04/07 09:44:43;;;;;;;30.77;13.18;;;;;;;10.25;75.14;99883.97;5012038;28;20045;-85
2023/04/07 09:47:10;;;;;;;32.38;14.18;;;;;;;10.33;75.09;99883.34;5033096;28;20116;-85
2023/04/07 09:49:51;;;;;;;39.60;14.43;;;;;;;10.27;75.78;99879.38;5024936;28;20484;-85
2023/04/07 09:52:21;;;;;;;31.40;14.15;;;;;;;10.37;75.48;99882.94;5009826;28;20128;-85
2023/04/07 09:54:48;;;;;;;36.25;14.88;;;;;;;10.47;76.46;99876.84;5028385;28;20044;-85
2023/04/07 09:57:17;;;;;;;31.52;13.82;;;;;;;10.49;76.17;99870.44;5009868;28;20061;-85
2023/04/07 09:59:44;;;;;;;29.63;12.38;;;;;;;10.58;76.04;99874.94;5010672;28;20042;-85
2023/04/07 10:02:11;;;;;;;25.15;11.95;;;;;;;10.68;75.52;99868.81;5029847;28;20048;-84
2023/04/07 10:04:39;;;;;;;24.08;10.32;;;;;;;10.75;75.51;99869.94;4996827;28;20052;-85
2023/04/07 10:07:06;;;;;;;32.92;12.68;;;;;;;10.79;75.73;99866.88;5000426;28;20133;-84
2023/04/07 10:09:33;;;;;;;28.70;12.10;;;;;;;10.86;75.60;99868.03;5010754;28;20050;-84
2023/04/07 10:11:59;;;;;;;31.52;12.05;;;;;;;10.91;75.58;99864.09;5007097;28;20049;-85
2023/04/07 10:14:29;;;;;;;32.78;12.75;;;;;;;10.86;74.22;99865.38;4981818;28;20088;-84
2023/04/07 10:16:56;;;;;;;30.45;12.35;;;;;;;10.87;74.63;99860.88;4982787;28;20403;-85
2023/04/07 10:19:23;;;;;;;25.83;10.90;;;;;;;10.85;74.54;99854.88;5006573;28;20138;-84
2023/04/07 10:21:52;;;;;;;25.30;11.02;;;;;;;10.87;74.53;99858.22;4983304;28;20054;-85
2023/04/07 10:24:49;;;;;;;24.40;11.32;;;;;;;10.79;73.10;99858.09;5024363;28;20064;-84
2023/04/07 10:27:20;;;;;;;40.13;21.05;;;;;;;10.90;73.38;99860.63;5008807;28;20067;-84
2023/04/07 10:29:49;;;;;;;29.45;11.85;;;;;;;10.94;73.01;99859.38;4994948;28;20874;-84
2023/04/07 10:32:16;;;;;;;26.35;10.98;;;;;;;10.98;72.48;99857.25;4994891;28;20064;-84
2023/04/07 10:34:56;;;;;;;27.00;10.35;;;;;;;10.89;71.40;99853.63;5025350;28;20053;-85
2023/04/07 10:37:24;;;;;;;25.45;10.50;;;;;;;10.95;71.77;99863.69;5011937;28;20038;-85
2023/04/07 10:40:20;;;;;;;22.83;10.30;;;;;;;10.84;71.46;99861.16;4991099;28;20124;-85
2023/04/07 10:42:47;;;;;;;19.83;9.77;;;;;;;10.86;71.82;99857.41;5009048;28;20104;-84
2023/04/07 10:45:14;;;;;;;26.02;10.30;;;;;;;10.91;71.93;99856.13;5030007;28;20374;-85
2023/04/07 10:48:02;;;;;;;22.00;8.85;;;;;;;10.91;70.43;99856.13;5010314;28;20054;-84
2023/04/07 10:50:29;;;;;;;21.55;9.27;;;;;;;11.01;71.37;99849.84;5010400;28;20079;-85
2023/04/07 10:53:07;;;;;;;24.63;9.75;;;;;;;10.98;70.37;99859.91;5013598;28;20125;-85
2023/04/07 10:55:43;;;;;;;24.20;9.70;;;;;;;10.98;70.72;99849.28;5011219;28;20052;-84
2023/04/07 10:58:20;;;;;;;20.75;8.73;;;;;;;11.03;70.28;99847.91;4993014;28;20049;-84
2023/04/07 11:01:05;;;;;;;19.13;8.82;;;;;;;11.10;69.13;99848.19;4990752;28;20045;-85
2023/04/07 11:03:55;;;;;;;26.95;9.23;;;;;;;11.18;69.52;99856.31;4985894;28;20057;-83
2023/04/07 11:06:23;;;;;;;22.88;8.82;;;;;;;11.14;69.45;99854.06;5007608;28;20938;-84
2023/04/07 11:08:50;;;;;;;18.95;8.48;;;;;;;11.14;69.43;99841.59;4999255;28;20050;-85
2023/04/07 11:11:37;;;;;;;19.17;8.07;;;;;;;11.09;68.96;99841.19;5009876;28;20041;-84
2023/04/07 11:14:04;;;;;;;21.27;8.35;;;;;;;11.18;69.74;99835.03;4994509;28;20067;-85
2023/04/07 11:16:36;;;;;;;22.88;8.32;;;;;;;11.14;68.99;99849.56;4991877;28;20104;-85
2023/04/07 11:19:03;;;;;;;21.25;9.93;;;;;;;11.13;68.87;99841.75;4992993;28;20045;-85
2023/04/07 11:21:30;;;;;;;15.35;7.78;;;;;;;11.12;69.04;99845.38;4984193;28;20132;-84
2023/04/07 11:23:56;;;;;;;16.20;7.22;;;;;;;11.08;68.34;99843.00;4990770;28;20084;-85
2023/04/07 11:26:23;;;;;;;20.77;7.82;;;;;;;11.07;68.31;99840.50;4997612;28;20140;-85
2023/04/07 11:28:51;;;;;;;16.73;7.47;;;;;;;11.05;67.78;99845.94;4998457;28;20037;-84
2023/04/07 11:31:26;;;;;;;20.67;7.63;;;;;;;11.05;67.21;99842.47;5014543;28;20389;-84
2023/04/07 11:33:58;;;;;;;15.38;7.32;;;;;;;11.09;67.98;99838.53;5023902;28;20153;-84